Terminal Aerodrome Forecast
Issued by NWS Sioux Falls, SD

Home | Current Version | Previous Version | Text Only | Print | Product List | Glossary On
Versions: 1 2 3 4 5 6 7 8 9 10 11 12 13 14 15 16 17 18 19
137
FTUS43 KFSD 151547 AAB
TAFFSD
TAF AMD
KFSD 151547Z 1516/1612 32018G27KT P6SM BKN016
     FM151630 32016G23KT P6SM SCT018
     FM160000 33009KT P6SM FEW250
     FM160200 VRB04KT P6SM FEW250=

USA.gov is the U.S. government's official web portal to all federal, state and local government web resources and services.